createdAt,value
2018-05-02T00:01:40.231Z,100779.45
2018-05-02T00:04:06.555Z,100773.59
2018-05-02T00:06:33.284Z,100773.03
2018-05-02T00:08:59.084Z,100760.50
2018-05-02T00:11:24.874Z,100762.89
2018-05-02T00:13:50.689Z,100761.78
2018-05-02T00:16:16.478Z,100764.27
2018-05-02T00:18:42.261Z,100758.45
2018-05-02T00:21:08.071Z,100758.14
2018-05-02T00:23:33.867Z,100753.55
2018-05-02T00:25:59.655Z,100759.88
2018-05-02T00:28:25.468Z,100760.03
2018-05-02T00:30:51.261Z,100759.63
2018-05-02T00:33:17.051Z,100762.94
2018-05-02T00:35:42.826Z,100767.97
2018-05-02T00:38:08.630Z,100752.09
2018-05-02T00:40:34.437Z,100745.51
2018-05-02T00:43:00.267Z,100750.28
2018-05-02T00:45:26.059Z,100748.95
2018-05-02T00:47:51.853Z,100755.09
2018-05-02T00:50:18.013Z,100752.11
2018-05-02T00:52:43.825Z,100752.46
2018-05-02T00:55:09.617Z,100739.36
2018-05-02T00:57:35.424Z,100740.73
2018-05-02T01:00:01.212Z,100736.09
2018-05-02T01:02:27.033Z,100734.17
2018-05-02T01:04:52.829Z,100728.06
2018-05-02T01:07:18.632Z,100736.16
2018-05-02T01:09:44.456Z,100736.88
2018-05-02T01:12:10.270Z,100732.81
2018-05-02T01:14:36.056Z,100737.45
2018-05-02T01:17:01.851Z,100739.09
2018-05-02T01:19:27.656Z,100743.34
2018-05-02T01:21:53.444Z,100744.44
2018-05-02T01:24:19.258Z,100743.05
2018-05-02T01:26:45.045Z,100745.48
2018-05-02T01:29:10.837Z,100743.61
2018-05-02T01:31:36.789Z,100746.47
2018-05-02T01:34:02.567Z,100742.22
2018-05-02T01:36:28.350Z,100740.62
2018-05-02T01:38:54.157Z,100743.14
2018-05-02T01:41:19.967Z,100747.56
2018-05-02T01:43:45.756Z,100746.56
2018-05-02T01:46:11.559Z,100742.53
2018-05-02T01:48:37.378Z,100742.16
2018-05-02T01:51:03.163Z,100742.27
2018-05-02T01:53:28.958Z,100744.61
2018-05-02T01:55:54.769Z,100743.70
2018-05-02T01:58:20.583Z,100745.81
2018-05-02T02:00:46.367Z,100747.28
2018-05-02T02:03:12.336Z,100750.69
2018-05-02T02:05:38.167Z,100750.02
2018-05-02T02:08:03.994Z,100750.96
2018-05-02T02:10:29.825Z,100759.17
2018-05-02T02:12:55.619Z,100755.65
2018-05-02T02:15:21.435Z,100764.56
2018-05-02T02:17:47.319Z,100769.73
2018-05-02T02:20:13.114Z,100767.26
2018-05-02T02:22:38.902Z,100767.14
2018-05-02T02:25:04.709Z,100770.58
2018-05-02T02:27:30.512Z,100771.52
2018-05-02T02:29:56.293Z,100773.73
2018-05-02T02:32:22.111Z,100773.23
2018-05-02T02:34:47.903Z,100769.24
2018-05-02T02:37:13.694Z,100775.22
2018-05-02T02:39:39.809Z,100774.78
2018-05-02T02:42:05.599Z,100770.48
2018-05-02T02:44:31.379Z,100776.80
2018-05-02T02:46:57.187Z,100771.63
2018-05-02T02:49:22.970Z,100770.44
2018-05-02T02:51:48.781Z,100773.33
2018-05-02T02:54:14.595Z,100775.63
2018-05-02T02:56:40.384Z,100781.92
2018-05-02T02:59:06.159Z,100776.89
2018-05-02T03:01:32.051Z,100779.47
2018-05-02T03:03:57.850Z,100786.09
2018-05-02T03:06:23.637Z,100781.42
2018-05-02T03:08:49.446Z,100790.42
2018-05-02T03:11:15.240Z,100786.70
2018-05-02T03:13:41.045Z,100783.82
2018-05-02T03:16:06.854Z,100779.72
2018-05-02T03:18:32.673Z,100788.78
2018-05-02T03:20:58.470Z,100781.11
2018-05-02T03:23:24.254Z,100787.05
2018-05-02T03:25:50.036Z,100782.11
2018-05-02T03:28:15.826Z,100786.58
2018-05-02T03:30:41.635Z,100785.38
2018-05-02T03:33:07.544Z,100786.49
2018-05-02T03:35:33.326Z,100791.44
2018-05-02T03:37:59.131Z,100786.08
2018-05-02T03:40:25.095Z,100790.27
2018-05-02T03:42:50.882Z,100786.42
2018-05-02T03:45:19.689Z,100788.66
2018-05-02T03:47:45.527Z,100793.66
2018-05-02T03:50:11.337Z,100791.45
2018-05-02T03:52:37.121Z,100792.88
2018-05-02T03:55:02.941Z,100796.73
2018-05-02T03:57:28.724Z,100793.20
2018-05-02T04:00:07.024Z,100796.20
2018-05-02T04:02:45.402Z,100791.02
2018-05-02T04:05:23.642Z,100799.18
2018-05-02T04:07:49.608Z,100797.82
2018-05-02T04:10:15.428Z,100795.27
2018-05-02T04:12:41.243Z,100791.89
2018-05-02T04:15:07.029Z,100801.20
2018-05-02T04:17:32.823Z,100810.59
2018-05-02T04:19:58.604Z,100803.87
2018-05-02T04:22:24.405Z,100803.70
2018-05-02T04:24:50.191Z,100805.61
2018-05-02T04:27:15.973Z,100809.11
2018-05-02T04:29:41.769Z,100811.72
2018-05-02T04:32:07.606Z,100806.72
2018-05-02T04:34:33.402Z,100804.90
2018-05-02T04:36:59.194Z,100808.99
2018-05-02T04:39:24.992Z,100809.67
2018-05-02T04:41:50.805Z,100815.33
2018-05-02T04:44:16.580Z,100818.70
2018-05-02T04:46:42.386Z,100825.07
2018-05-02T04:49:08.172Z,100820.98
2018-05-02T04:51:33.958Z,100828.02
2018-05-02T04:53:59.757Z,100824.36
2018-05-02T04:56:25.568Z,100831.97
2018-05-02T04:58:51.352Z,100833.20
2018-05-02T05:01:17.174Z,100831.09
2018-05-02T05:03:42.961Z,100837.21
2018-05-02T05:06:08.753Z,100843.94
2018-05-02T05:08:34.542Z,100844.98
2018-05-02T05:11:00.326Z,100849.52
2018-05-02T05:13:26.155Z,100851.57
2018-05-02T05:15:52.088Z,100850.52
2018-05-02T05:18:17.903Z,100852.19
2018-05-02T05:20:43.694Z,100858.16
2018-05-02T05:23:09.507Z,100855.13
2018-05-02T05:25:35.302Z,100855.52
2018-05-02T05:28:01.095Z,100860.53
2018-05-02T05:30:26.901Z,100863.80
2018-05-02T05:32:52.699Z,100861.14
2018-05-02T05:35:18.518Z,100856.38
2018-05-02T05:37:44.445Z,100859.40
2018-05-02T05:40:10.272Z,100862.59
2018-05-02T05:42:36.072Z,100860.66
2018-05-02T05:45:01.901Z,100859.09
2018-05-02T05:47:27.713Z,100860.75
2018-05-02T05:49:53.752Z,100861.88
2018-05-02T05:52:19.622Z,100858.89
2018-05-02T05:54:45.407Z,100861.27
2018-05-02T05:57:11.202Z,100868.21
2018-05-02T05:59:37.001Z,100866.46
2018-05-02T06:02:02.812Z,100871.22
2018-05-02T06:04:28.591Z,100872.97
2018-05-02T06:06:54.413Z,100877.77
2018-05-02T06:09:20.202Z,100870.55
2018-05-02T06:11:45.996Z,100878.73
2018-05-02T06:14:11.811Z,100881.05
2018-05-02T06:16:37.591Z,100874.95
2018-05-02T06:19:03.693Z,100875.13
2018-05-02T06:21:29.510Z,100865.02
2018-05-02T06:23:55.293Z,100868.38
2018-05-02T06:26:21.125Z,100869.89
2018-05-02T06:28:46.897Z,100873.48
2018-05-02T06:31:12.678Z,100876.18
2018-05-02T06:33:38.494Z,100874.50
2018-05-02T06:36:04.303Z,100878.64
2018-05-02T06:38:30.093Z,100872.56
2018-05-02T06:40:55.885Z,100875.53
2018-05-02T06:43:21.758Z,100878.63
2018-05-02T06:45:47.483Z,100864.58
2018-05-02T06:48:13.306Z,100868.03
2018-05-02T06:50:39.105Z,100868.84
2018-05-02T06:53:04.921Z,100869.05
2018-05-02T06:55:30.713Z,100871.63
2018-05-02T06:57:56.521Z,100862.78
2018-05-02T07:00:22.319Z,100864.02
2018-05-02T07:02:48.101Z,100870.00
2018-05-02T07:05:13.893Z,100866.36
2018-05-02T07:07:39.685Z,100865.39
2018-05-02T07:10:05.478Z,100865.97
2018-05-02T07:12:31.287Z,100867.80
2018-05-02T07:14:57.062Z,100874.53
2018-05-02T07:17:22.889Z,100876.56
2018-05-02T07:19:48.675Z,100871.63
2018-05-02T07:22:14.471Z,100879.97
2018-05-02T07:24:40.283Z,100877.57
2018-05-02T07:27:06.081Z,100873.97
2018-05-02T07:29:31.869Z,100876.98
2018-05-02T07:31:57.663Z,100880.55
2018-05-02T07:34:23.450Z,100876.45
2018-05-02T07:36:49.241Z,100872.64
2018-05-02T07:39:15.083Z,100872.98
2018-05-02T07:41:40.971Z,100868.72
2018-05-02T07:44:06.762Z,100877.13
2018-05-02T07:46:32.589Z,100874.84
2018-05-02T07:48:58.398Z,100873.80
2018-05-02T07:51:24.230Z,100870.34
2018-05-02T07:53:50.022Z,100875.42
2018-05-02T07:56:15.801Z,100866.91
2018-05-02T07:58:41.751Z,100863.02
2018-05-02T08:01:07.705Z,100866.48
2018-05-02T08:03:33.848Z,100867.02
2018-05-02T08:05:59.645Z,100864.55
2018-05-02T08:08:25.569Z,100865.04
2018-05-02T08:10:51.655Z,100869.81
2018-05-02T08:13:17.454Z,100857.89
2018-05-02T08:15:43.253Z,100856.02
2018-05-02T08:18:09.071Z,100864.86
2018-05-02T08:20:34.878Z,100858.52
2018-05-02T08:23:00.719Z,100865.73
2018-05-02T08:25:26.523Z,100862.92
2018-05-02T08:27:52.323Z,100865.64
2018-05-02T08:30:18.154Z,100864.59
2018-05-02T08:32:43.962Z,100863.74
2018-05-02T08:35:09.750Z,100865.47
2018-05-02T08:37:35.565Z,100862.34
2018-05-02T08:40:01.355Z,100870.26
2018-05-02T08:42:27.188Z,100857.63
2018-05-02T08:44:52.982Z,100863.64
2018-05-02T08:47:18.805Z,100866.23
2018-05-02T08:49:44.602Z,100855.25
2018-05-02T08:52:10.422Z,100849.20
2018-05-02T08:54:36.230Z,100855.13
2018-05-02T08:57:02.077Z,100851.29
2018-05-02T08:59:27.850Z,100841.72
2018-05-02T09:01:53.741Z,100846.03
2018-05-02T09:04:19.473Z,100850.41
2018-05-02T09:06:45.292Z,100858.54
2018-05-02T09:09:11.429Z,100856.08
2018-05-02T09:11:37.229Z,100854.86
2018-05-02T09:14:03.028Z,100846.66
2018-05-02T09:16:28.801Z,100845.09
2018-05-02T09:18:54.601Z,100840.73
2018-05-02T09:21:20.433Z,100844.70
2018-05-02T09:23:46.221Z,100841.05
2018-05-02T09:26:12.002Z,100837.49
2018-05-02T09:28:37.808Z,100826.31
2018-05-02T09:31:03.618Z,100823.70
2018-05-02T09:33:29.414Z,100825.44
2018-05-02T09:35:55.219Z,100812.75
2018-05-02T09:38:21.024Z,100813.86
2018-05-02T09:40:46.821Z,100820.67
2018-05-02T09:43:12.625Z,100814.02
2018-05-02T09:45:38.461Z,100809.04
2018-05-02T09:48:04.368Z,100806.53
2018-05-02T09:50:30.120Z,100810.20
2018-05-02T09:52:55.940Z,100801.08
2018-05-02T09:55:21.722Z,100789.69
2018-05-02T09:57:47.510Z,100795.78
2018-05-02T10:00:13.639Z,100791.89
2018-05-02T10:02:39.429Z,100795.53
2018-05-02T10:05:05.221Z,100780.55
2018-05-02T10:07:30.999Z,100788.12
2018-05-02T10:09:56.778Z,100780.96
2018-05-02T10:12:22.624Z,100766.55
2018-05-02T10:14:48.438Z,100772.45
2018-05-02T10:17:14.217Z,100772.18
2018-05-02T10:19:40.040Z,100776.33
2018-05-02T10:22:06.090Z,100777.14
2018-05-02T10:24:31.873Z,100777.77
2018-05-02T10:26:57.675Z,100768.76
2018-05-02T10:29:23.461Z,100772.32
2018-05-02T10:31:49.668Z,100770.66
2018-05-02T10:34:15.461Z,100773.70
2018-05-02T10:36:41.256Z,100774.85
2018-05-02T10:39:07.345Z,100770.99
2018-05-02T10:41:33.148Z,100766.74
2018-05-02T10:43:58.925Z,100762.23
2018-05-02T10:46:25.090Z,100758.08
2018-05-02T10:48:50.874Z,100770.78
2018-05-02T10:51:16.666Z,100760.84
2018-05-02T10:53:42.750Z,100754.77
2018-05-02T10:56:08.579Z,100755.36
2018-05-02T10:58:34.370Z,100763.83
2018-05-02T11:01:00.176Z,100760.25
2018-05-02T11:03:25.998Z,100757.17
2018-05-02T11:05:51.784Z,100750.30
2018-05-02T11:08:17.614Z,100746.55
2018-05-02T11:10:43.428Z,100737.91
2018-05-02T11:13:09.211Z,100740.38
2018-05-02T11:15:35.015Z,100735.32
2018-05-02T11:18:00.810Z,100733.25
2018-05-02T11:20:26.617Z,100742.80
2018-05-02T11:22:52.414Z,100733.81
2018-05-02T11:25:18.218Z,100728.18
2018-05-02T11:27:44.025Z,100733.25
2018-05-02T11:30:09.810Z,100734.92
2018-05-02T11:32:35.619Z,100721.73
2018-05-02T11:35:01.460Z,100724.28
2018-05-02T11:37:27.234Z,100725.70
2018-05-02T11:39:53.050Z,100716.22
2018-05-02T11:42:18.856Z,100727.52
2018-05-02T11:44:44.642Z,100732.59
2018-05-02T11:47:10.447Z,100729.80
2018-05-02T11:49:36.228Z,100724.31
2018-05-02T11:52:02.097Z,100720.15
2018-05-02T11:54:27.906Z,100715.52
2018-05-02T11:56:53.688Z,100719.45
2018-05-02T11:59:19.498Z,100710.90
2018-05-02T12:01:45.308Z,100703.80
2018-05-02T12:04:11.117Z,100708.76
2018-05-02T12:09:09.137Z,100704.02
2018-05-02T12:11:34.985Z,100707.44
2018-05-02T12:14:00.779Z,100711.55
2018-05-02T12:16:26.556Z,100704.81
2018-05-02T12:18:52.734Z,100695.68
2018-05-02T12:21:18.525Z,100696.22
2018-05-02T12:23:44.320Z,100696.05
2018-05-02T12:26:10.137Z,100692.02
2018-05-02T12:28:35.958Z,100696.69
2018-05-02T12:31:01.759Z,100693.63
2018-05-02T12:33:27.560Z,100682.75
2018-05-02T12:35:53.351Z,100695.77
2018-05-02T12:38:19.164Z,100695.42
2018-05-02T12:40:44.946Z,100684.45
2018-05-02T12:43:10.810Z,100688.13
2018-05-02T12:45:36.595Z,100685.45
2018-05-02T12:48:02.409Z,100687.62
2018-05-02T12:50:28.218Z,100669.72
2018-05-02T12:52:54.015Z,100665.00
2018-05-02T12:55:21.451Z,100665.99
2018-05-02T12:57:51.891Z,100674.41
2018-05-02T13:00:20.683Z,100675.15
2018-05-02T13:02:46.533Z,100655.77
2018-05-02T13:05:13.222Z,100657.13
2018-05-02T13:07:39.018Z,100648.22
2018-05-02T13:10:04.809Z,100639.64
2018-05-02T13:12:30.629Z,100646.14
2018-05-02T13:14:56.417Z,100642.48
2018-05-02T13:17:22.223Z,100631.20
2018-05-02T13:19:48.014Z,100631.88
2018-05-02T13:22:13.803Z,100630.19
2018-05-02T13:24:39.595Z,100628.36
2018-05-02T13:27:05.393Z,100626.36
2018-05-02T13:29:31.607Z,100620.74
2018-05-02T13:31:57.384Z,100612.16
2018-05-02T13:34:23.178Z,100600.67
2018-05-02T13:36:49.361Z,100606.39
2018-05-02T13:39:15.162Z,100604.23
2018-05-02T13:41:40.957Z,100599.28
2018-05-02T13:44:07.071Z,100591.02
2018-05-02T13:46:32.870Z,100599.22
2018-05-02T13:48:58.662Z,100602.05
2018-05-02T13:51:24.485Z,100590.56
2018-05-02T13:53:50.280Z,100588.20
2018-05-02T13:56:16.073Z,100582.60
2018-05-02T13:58:41.865Z,100587.61
2018-05-02T14:01:07.651Z,100580.59
2018-05-02T14:03:33.475Z,100569.09
2018-05-02T14:05:59.283Z,100567.61
2018-05-02T14:08:25.120Z,100574.10
2018-05-02T14:10:50.871Z,100563.13
2018-05-02T14:13:16.653Z,100560.26
2018-05-02T14:15:42.449Z,100563.11
2018-05-02T14:18:08.234Z,100563.84
2018-05-02T14:20:34.037Z,100557.64
2018-05-02T14:22:59.842Z,100553.81
2018-05-02T14:25:25.629Z,100549.78
2018-05-02T14:27:51.411Z,100539.15
2018-05-02T14:30:17.208Z,100539.36
2018-05-02T14:32:43.012Z,100541.73
2018-05-02T14:35:09.205Z,100533.67
2018-05-02T14:37:34.990Z,100530.83
2018-05-02T14:40:00.808Z,100530.84
2018-05-02T14:42:26.966Z,100536.88
2018-05-02T14:44:52.783Z,100533.98
2018-05-02T14:47:18.567Z,100523.90
2018-05-02T14:49:44.728Z,100524.52
2018-05-02T14:52:10.513Z,100529.23
2018-05-02T14:54:36.362Z,100524.61
2018-05-02T14:57:02.483Z,100530.28
2018-05-02T14:59:28.289Z,100525.72
2018-05-02T15:01:54.105Z,100526.94
2018-05-02T15:04:19.908Z,100525.41
2018-05-02T15:06:45.734Z,100515.31
2018-05-02T15:09:11.525Z,100519.05
2018-05-02T15:11:37.352Z,100520.20
2018-05-02T15:14:03.158Z,100521.84
2018-05-02T15:16:28.970Z,100523.33
2018-05-02T15:18:54.740Z,100519.78
2018-05-02T15:21:20.569Z,100514.91
2018-05-02T15:23:46.350Z,100504.05
2018-05-02T15:26:12.166Z,100503.06
2018-05-02T15:28:37.947Z,100508.09
2018-05-02T15:31:03.754Z,100499.13
2018-05-02T15:33:29.558Z,100494.19
2018-05-02T15:35:55.334Z,100500.70
2018-05-02T15:38:21.111Z,100509.95
2018-05-02T15:40:46.924Z,100509.76
2018-05-02T15:43:12.719Z,100508.30
2018-05-02T15:45:38.513Z,100501.53
2018-05-02T15:48:04.331Z,100496.47
2018-05-02T15:50:30.132Z,100499.14
2018-05-02T15:52:55.914Z,100507.58
2018-05-02T15:55:21.730Z,100500.05
2018-05-02T15:57:47.557Z,100496.28
2018-05-02T16:00:13.363Z,100500.55
2018-05-02T16:02:39.159Z,100489.55
2018-05-02T16:05:04.975Z,100499.20
2018-05-02T16:07:30.777Z,100493.91
2018-05-02T16:09:56.662Z,100497.02
2018-05-02T16:12:22.394Z,100492.08
2018-05-02T16:14:48.197Z,100495.95
2018-05-02T16:17:14.019Z,100490.45
2018-05-02T16:19:39.830Z,100486.20
2018-05-02T16:22:05.649Z,100487.99
2018-05-02T16:24:31.459Z,100484.22
2018-05-02T16:26:57.243Z,100486.13
2018-05-02T16:29:23.038Z,100485.02
2018-05-02T16:31:48.869Z,100479.47
2018-05-02T16:34:14.752Z,100484.75
2018-05-02T16:36:40.486Z,100474.94
2018-05-02T16:39:06.327Z,100477.23
2018-05-02T16:41:32.104Z,100475.22
2018-05-02T16:43:57.888Z,100477.15
2018-05-02T16:46:24.105Z,100473.59
2018-05-02T16:48:49.891Z,100481.55
2018-05-02T16:51:15.679Z,100473.34
2018-05-02T16:53:41.595Z,100474.61
2018-05-02T16:56:07.386Z,100479.27
2018-05-02T16:58:33.197Z,100477.22
2018-05-02T17:00:58.989Z,100470.27
2018-05-02T17:03:24.807Z,100476.77
2018-05-02T17:05:50.640Z,100463.99
2018-05-02T17:08:16.438Z,100472.66
2018-05-02T17:10:42.596Z,100470.67
2018-05-02T17:13:08.372Z,100476.98
2018-05-02T17:15:34.179Z,100478.33
2018-05-02T17:18:00.013Z,100479.31
2018-05-02T17:20:25.816Z,100474.98
2018-05-02T17:22:51.605Z,100481.92
2018-05-02T17:25:17.421Z,100488.61
2018-05-02T17:27:43.305Z,100474.19
2018-05-02T17:30:09.390Z,100470.69
2018-05-02T17:32:35.168Z,100481.83
2018-05-02T17:35:00.959Z,100485.27
2018-05-02T17:37:27.066Z,100475.61
2018-05-02T17:39:52.853Z,100479.38
2018-05-02T17:42:18.731Z,100482.08
2018-05-02T17:44:44.796Z,100479.48
2018-05-02T17:47:10.644Z,100485.39
2018-05-02T17:49:36.841Z,100488.63
2018-05-02T17:52:02.714Z,100491.92
2018-05-02T17:54:28.625Z,100499.56
2018-05-02T17:56:54.438Z,100501.84
2018-05-02T17:59:20.703Z,100504.45
2018-05-02T18:01:46.501Z,100503.73
2018-05-02T18:04:12.606Z,100495.13
2018-05-02T18:06:38.405Z,100506.17
2018-05-02T18:09:04.539Z,100498.77
2018-05-02T18:11:30.626Z,100505.11
2018-05-02T18:14:01.466Z,100506.34
2018-05-02T18:16:27.282Z,100515.20
2018-05-02T18:18:53.518Z,100510.53
2018-05-02T18:21:19.315Z,100506.64
2018-05-02T18:23:45.437Z,100508.93
2018-05-02T18:26:11.230Z,100511.83
2018-05-02T18:28:37.144Z,100516.47
2018-05-02T18:31:03.017Z,100514.52
2018-05-02T18:33:28.806Z,100511.36
2018-05-02T18:35:54.736Z,100509.14
2018-05-02T18:38:20.552Z,100509.31
2018-05-02T18:40:46.967Z,100512.70
2018-05-02T18:43:13.114Z,100519.19
2018-05-02T18:45:39.039Z,100525.59
2018-05-02T18:48:04.836Z,100517.17
2018-05-02T18:50:30.880Z,100516.62
2018-05-02T18:52:56.696Z,100520.02
2018-05-02T18:55:22.497Z,100511.66
2018-05-02T18:57:48.352Z,100517.78
2018-05-02T19:00:14.354Z,100513.88
2018-05-02T19:02:40.341Z,100512.27
2018-05-02T19:05:06.129Z,100511.55
2018-05-02T19:07:32.286Z,100506.80
2018-05-02T19:09:58.070Z,100504.32
2018-05-02T19:12:23.866Z,100510.32
2018-05-02T19:14:50.109Z,100511.25
2018-05-02T19:17:15.883Z,100515.05
2018-05-02T19:19:47.946Z,100518.16
2018-05-02T19:22:13.800Z,100519.22
2018-05-02T19:24:45.701Z,100526.08
2018-05-02T19:27:11.501Z,100520.96
2018-05-02T19:29:37.530Z,100526.21
2018-05-02T19:32:09.506Z,100530.72
2018-05-02T19:34:35.319Z,100532.46
2018-05-02T19:37:01.132Z,100533.39
2018-05-02T19:39:26.934Z,100531.74
2018-05-02T19:41:58.921Z,100530.09
2018-05-02T19:44:24.734Z,100519.64
2018-05-02T19:46:50.539Z,100528.59
2018-05-02T19:49:16.339Z,100522.00
2018-05-02T19:51:48.400Z,100528.53
2018-05-02T19:54:14.231Z,100524.49
2018-05-02T19:56:40.005Z,100527.28
2018-05-02T19:59:05.819Z,100521.93
2018-05-02T20:01:37.781Z,100519.81
2018-05-02T20:04:03.570Z,100519.72
2018-05-02T20:06:29.353Z,100515.53
2018-05-02T20:09:01.298Z,100514.02
2018-05-02T20:11:33.288Z,100514.13
2018-05-02T20:14:02.122Z,100517.95
2018-05-02T20:16:27.914Z,100505.97
2018-05-02T20:18:53.691Z,100514.03
2018-05-02T20:21:19.636Z,100517.03
2018-05-02T20:23:45.434Z,100512.23
2018-05-02T20:26:11.225Z,100512.94
2018-05-02T20:28:37.605Z,100511.72
2018-05-02T20:31:03.398Z,100512.34
2018-05-02T20:33:29.358Z,100513.59
2018-05-02T20:35:55.530Z,100505.66
2018-05-02T20:38:21.453Z,100501.30
2018-05-02T20:40:48.100Z,100500.95
2018-05-02T20:43:13.905Z,100504.76
2018-05-02T20:45:39.689Z,100501.53
2018-05-02T20:48:05.505Z,100503.89
2018-05-02T20:50:31.293Z,100500.64
2018-05-02T20:52:57.090Z,100495.94
2018-05-02T20:55:23.292Z,100498.97
2018-05-02T20:57:49.046Z,100493.17
2018-05-02T21:00:14.945Z,100497.95
2018-05-02T21:02:40.790Z,100488.62
2018-05-02T21:05:06.591Z,100487.94
2018-05-02T21:07:32.407Z,100483.28
2018-05-02T21:09:58.197Z,100479.51
2018-05-02T21:12:24.309Z,100478.77
2018-05-02T21:14:50.561Z,100482.51
2018-05-02T21:17:16.774Z,100485.70
2018-05-02T21:19:42.571Z,100485.53
2018-05-02T21:22:08.994Z,100487.03
2018-05-02T21:24:34.802Z,100491.58
2018-05-02T21:27:00.824Z,100488.11
2018-05-02T21:29:26.756Z,100483.61
2018-05-02T21:31:52.550Z,100483.36
2018-05-02T21:34:18.334Z,100492.54
2018-05-02T21:36:44.175Z,100485.44
2018-05-02T21:39:09.962Z,100478.75
2018-05-02T21:41:35.745Z,100478.39
2018-05-02T21:44:02.128Z,100479.48
2018-05-02T21:46:28.063Z,100483.34
2018-05-02T21:48:53.850Z,100484.57
2018-05-02T21:51:19.941Z,100483.34
2018-05-02T21:53:45.747Z,100486.38
2018-05-02T21:56:11.716Z,100483.03
2018-05-02T21:58:37.611Z,100464.92
2018-05-02T22:01:03.406Z,100478.88
2018-05-02T22:03:29.202Z,100466.19
2018-05-02T22:05:54.990Z,100473.72
2018-05-02T22:08:20.776Z,100473.84
2018-05-02T22:10:46.595Z,100475.05
2018-05-02T22:13:12.369Z,100471.27
2018-05-02T22:15:38.615Z,100470.61
2018-05-02T22:18:04.430Z,100473.70
2018-05-02T22:20:30.338Z,100468.23
2018-05-02T22:22:56.153Z,100473.48
2018-05-02T22:25:21.949Z,100479.61
2018-05-02T22:27:47.733Z,100471.42
2018-05-02T22:30:13.559Z,100466.77
2018-05-02T22:32:39.347Z,100464.45
2018-05-02T22:35:05.552Z,100464.17
2018-05-02T22:37:31.346Z,100468.88
2018-05-02T22:39:57.141Z,100461.61
2018-05-02T22:42:22.962Z,100461.55
2018-05-02T22:44:48.738Z,100466.63
2018-05-02T22:47:14.530Z,100465.73
2018-05-02T22:49:40.338Z,100461.89
2018-05-02T22:52:06.145Z,100460.90
2018-05-02T22:54:31.910Z,100461.06
2018-05-02T22:56:57.701Z,100463.09
2018-05-02T22:59:23.488Z,100460.24
2018-05-02T23:01:49.311Z,100459.30
2018-05-02T23:04:15.092Z,100461.45
2018-05-02T23:06:40.877Z,100452.44
2018-05-02T23:09:06.669Z,100452.64
2018-05-02T23:11:32.438Z,100448.94
2018-05-02T23:13:58.238Z,100437.31
2018-05-02T23:16:24.041Z,100431.14
2018-05-02T23:18:49.820Z,100431.59
2018-05-02T23:21:15.598Z,100432.59
2018-05-02T23:23:41.734Z,100438.28
2018-05-02T23:26:07.544Z,100430.52
2018-05-02T23:28:33.339Z,100428.19
2018-05-02T23:30:59.757Z,100422.57
2018-05-02T23:33:32.447Z,100435.23
2018-05-02T23:35:58.229Z,100432.72
2018-05-02T23:38:24.009Z,100428.27
2018-05-02T23:40:49.813Z,100424.83
2018-05-02T23:43:15.605Z,100420.10
2018-05-02T23:45:41.393Z,100422.77
2018-05-02T23:48:07.179Z,100422.34
2018-05-02T23:50:32.977Z,100417.22
2018-05-02T23:52:58.774Z,100420.84
2018-05-02T23:55:24.569Z,100418.03
2018-05-02T23:57:50.359Z,100411.86
